Unalaska, AK (99685)

12:21 AM AKST on December 11, 2016 (GMT -0900)
Unalaska | | Change Station

Elev 13 ft 53.90 °N, 166.54 °W | Updated 25 minutes ago

Overcast
Overcast
32 °F
Feels Like 29 °F
N
4
Wind Variable Wind from West

Today
High -- | Low -- °F
--% Chance of Precip.
Yesterday
High -- | Low -- °F
Precip. -- in
Pressure 30.16 in
Visibility 10.0 miles
Clouds Overcast 3500 ft
Windchill 29 °F
Dew Point 24 °F
Humidity 73%
Rainfall 0.00 in
Snow Depth Not available.
10:15 AM 5:44 PM
Waxing Gibbous, 90% visible
METAR PADU 110856Z AUTO 26003KT 10SM OVC035 00/M04 A3015 RMK AO2 SLP211 T00001044 53002 FZRANO
Pressure 30.16 in
Visibility 10.0 miles
Clouds Overcast 3500 ft
Windchill 29 °F
Dew Point 24 °F
Humidity 73%
Rainfall 0.00 in
Snow Depth Not available.
10:15 AM 5:44 PM
Waxing Gibbous, 90% visible
METAR PADU 110856Z AUTO 26003KT 10SM OVC035 00/M04 A3015 RMK AO2 SLP211 T00001044 53002 FZRANO

10-Day Weather Forecast

Almanac

Astronomy

Dec. 11, 2016 Rise Set
Actual Time
Civil Twilight
Nautical Twilight
Astronomical Twilight
Moon
Length of Visible Light
Length of Day
Tomorrow will be .
, % of the Moon is Illuminated

Today's Extremes

State Highs State Lows

Community

WunderPhotos

Upload Photos

1,956,705 photos uploaded!

WunderBlog® & News

Nearby

Air Quality

  Air Quality AQ Index Pollutant
Not available.

Snow Depth

Station Depth Elevation

Earthquake Activity

City Distance Mag. Time & Date
Minimum magnitude displayed is 2.5.

Coastal Water Temperatures

Place Temperature

Stations

Nearby Weather Stations

Station Location Temp. Windchill Dew Point Humidity Wind Precip. Elev Updated Type
                   

Watches & Warnings

There are currently no watches in effect.